Time;durP1;ratioP1;P1;durP2;ratioP2;P2;SDS_P1;SDS_P2;PMS_P1;PMS_P2;Temp;Humidity;BMP_temperature;BMP_pressure;BME280_temperature;BME280_humidity;BME280_pressure;Samples;Min_cycle;Max_cycle;Signal;HPM_P1;HPM_P2
2021/01/24 00:01:34;;;;;;;3.53;3.22;;;1.50;99.90;;;;;;5049953;28;20580;-72
2021/01/24 00:04:01;;;;;;;3.30;2.72;;;1.50;99.90;;;;;;5051302;28;20221;-71
2021/01/24 00:06:28;;;;;;;2.33;2.13;;;1.50;99.90;;;;;;5051435;28;20703;-71
2021/01/24 00:08:54;;;;;;;2.67;2.45;;;1.50;99.90;;;;;;5049954;28;20205;-71
2021/01/24 00:11:20;;;;;;;2.90;2.55;;;1.50;99.90;;;;;;5050406;28;20814;-71
2021/01/24 00:13:46;;;;;;;2.50;2.30;;;1.50;99.90;;;;;;5050101;28;20205;-71
2021/01/24 00:16:12;;;;;;;3.50;2.63;;;1.50;99.90;;;;;;5050163;28;20225;-71
2021/01/24 00:18:39;;;;;;;3.30;2.67;;;1.40;99.90;;;;;;5050321;28;20209;-70
2021/01/24 00:21:06;;;;;;;2.30;2.10;;;1.50;99.90;;;;;;5050926;28;20201;-71
2021/01/24 00:23:32;;;;;;;2.15;1.95;;;1.50;99.90;;;;;;5051458;28;20201;-71
2021/01/24 00:25:58;;;;;;;2.60;2.40;;;1.50;99.90;;;;;;5050008;28;20345;-71
2021/01/24 00:28:26;;;;;;;2.90;2.60;;;1.40;99.90;;;;;;5050265;28;20603;-71
2021/01/24 00:30:52;;;;;;;2.60;2.40;;;1.40;99.90;;;;;;5049556;28;20209;-71
2021/01/24 00:33:18;;;;;;;2.25;2.05;;;1.40;99.90;;;;;;5049888;28;20221;-71
2021/01/24 00:35:44;;;;;;;2.17;2.08;;;1.40;99.90;;;;;;5050911;28;20217;-70
2021/01/24 00:38:12;;;;;;;2.60;2.40;;;1.50;99.90;;;;;;5050947;28;20558;-70
2021/01/24 00:40:38;;;;;;;2.35;2.15;;;1.40;99.90;;;;;;5049477;28;20213;-70
2021/01/24 00:43:05;;;;;;;2.65;2.45;;;1.50;99.90;;;;;;5048841;28;20204;-71
2021/01/24 00:45:31;;;;;;;2.50;2.30;;;1.40;99.90;;;;;;5049226;28;20643;-70
2021/01/24 00:47:57;;;;;;;2.42;2.20;;;1.40;99.90;;;;;;5048503;28;20223;-71
2021/01/24 00:50:23;;;;;;;2.50;2.30;;;1.40;99.90;;;;;;5048473;28;20205;-71
2021/01/24 00:52:49;;;;;;;2.78;2.40;;;1.40;99.90;;;;;;5048302;28;20228;-71
2021/01/24 00:55:17;;;;;;;2.40;2.20;;;1.40;99.90;;;;;;5048887;28;20761;-71
2021/01/24 00:57:43;;;;;;;2.42;2.10;;;1.40;99.90;;;;;;5048109;28;20320;-70
2021/01/24 01:00:10;;;;;;;2.40;2.10;;;1.40;99.90;;;;;;5048733;28;20205;-71
2021/01/24 01:02:37;;;;;;;2.33;2.13;;;1.40;99.90;;;;;;5049367;28;20201;-71
2021/01/24 01:05:03;;;;;;;2.75;2.55;;;1.30;99.90;;;;;;5048670;28;20577;-71
2021/01/24 01:07:30;;;;;;;2.13;2.03;;;1.30;99.90;;;;;;5048770;28;20205;-71
2021/01/24 01:09:56;;;;;;;2.58;2.38;;;1.40;99.90;;;;;;5047973;28;20439;-70
2021/01/24 01:12:23;;;;;;;2.53;2.33;;;1.40;99.90;;;;;;5048014;28;20205;-71
2021/01/24 01:14:49;;;;;;;2.38;2.17;;;1.40;99.90;;;;;;5048445;28;20217;-71
2021/01/24 01:17:15;;;;;;;2.47;2.25;;;1.40;99.90;;;;;;5048135;28;20200;-71
2021/01/24 01:19:42;;;;;;;2.78;2.58;;;1.40;99.90;;;;;;5048791;28;20201;-70
2021/01/24 01:22:08;;;;;;;2.50;2.30;;;1.40;99.90;;;;;;5047578;28;20266;-71
2021/01/24 01:24:34;;;;;;;2.70;2.50;;;1.40;99.90;;;;;;5049820;28;20225;-70
2021/01/24 01:27:01;;;;;;;2.33;2.13;;;1.50;99.90;;;;;;5049222;28;20616;-70
2021/01/24 01:29:28;;;;;;;3.10;2.80;;;1.50;99.90;;;;;;5050138;28;20263;-70
2021/01/24 01:31:54;;;;;;;2.70;2.50;;;1.50;99.90;;;;;;5048247;28;20493;-70
2021/01/24 01:34:20;;;;;;;3.00;2.70;;;1.50;99.90;;;;;;5048482;28;20201;-71
2021/01/24 01:36:47;;;;;;;3.05;2.75;;;1.50;99.90;;;;;;5048518;28;20205;-71
2021/01/24 01:39:14;;;;;;;2.80;2.60;;;1.50;99.90;;;;;;5048809;28;20205;-70
2021/01/24 01:41:40;;;;;;;2.40;2.20;;;1.50;99.90;;;;;;5047118;28;20201;-70
2021/01/24 01:44:07;;;;;;;3.25;2.95;;;1.40;99.90;;;;;;5047791;28;20221;-70
2021/01/24 01:46:34;;;;;;;2.40;2.20;;;1.30;99.90;;;;;;5047383;28;20196;-71
2021/01/24 01:49:00;;;;;;;4.30;2.90;;;1.30;99.90;;;;;;5048003;28;20209;-70
2021/01/24 01:51:27;;;;;;;2.70;2.50;;;1.30;99.90;;;;;;5048618;28;20208;-70
2021/01/24 01:53:53;;;;;;;2.70;2.50;;;1.30;99.90;;;;;;5048646;28;20228;-70
2021/01/24 01:56:20;;;;;;;2.72;2.25;;;1.30;99.90;;;;;;5048693;28;20228;-70
2021/01/24 01:58:46;;;;;;;2.45;2.25;;;1.30;99.90;;;;;;5048326;28;20564;-71
2021/01/24 02:01:19;;;;;;;3.17;2.05;;;1.40;99.90;;;;;;5049004;28;20197;-71
2021/01/24 02:03:55;;;;;;;2.25;1.90;;;1.50;99.90;;;;;;5048179;28;20212;-70
2021/01/24 02:06:27;;;;;;;1.65;1.55;;;1.50;99.90;;;;;;5048195;28;20239;-71
2021/01/24 02:09:00;;;;;;;1.52;1.42;;;1.50;99.90;;;;;;5048175;28;20205;-71
2021/01/24 02:11:34;;;;;;;2.03;1.77;;;1.60;99.90;;;;;;5047478;28;20263;-71
2021/01/24 02:14:10;;;;;;;1.77;1.50;;;1.60;99.90;;;;;;5047171;28;20456;-71
2021/01/24 02:16:40;;;;;;;1.90;1.80;;;1.60;99.90;;;;;;5047936;28;20205;-71
2021/01/24 02:19:17;;;;;;;1.88;1.38;;;1.60;99.90;;;;;;5048976;28;20205;-70
2021/01/24 02:21:46;;;;;;;1.42;1.05;;;1.50;99.90;;;;;;5046585;28;20209;-70
2021/01/24 02:24:15;;;;;;;1.55;1.35;;;1.60;99.90;;;;;;5046548;28;20263;-71
2021/01/24 02:26:48;;;;;;;1.90;1.08;;;1.60;99.90;;;;;;5046168;28;20640;-71
2021/01/24 02:29:22;;;;;;;1.08;0.98;;;1.60;99.90;;;;;;5046931;28;20732;-71
2021/01/24 02:31:52;;;;;;;1.38;1.00;;;1.50;99.90;;;;;;5045558;28;20217;-70
2021/01/24 02:34:21;;;;;;;1.00;0.80;;;1.50;99.90;;;;;;5143985;22;20202;-73
2021/01/24 02:36:49;;;;;;;0.80;0.70;;;1.60;99.90;;;;;;5027814;28;20235;-72
2021/01/24 02:39:17;;;;;;;1.13;0.90;;;1.60;99.90;;;;;;5029256;28;20201;-71
2021/01/24 02:41:43;;;;;;;1.05;0.75;;;1.60;99.90;;;;;;5028788;28;20216;-72
2021/01/24 02:44:12;;;;;;;1.85;0.90;;;1.70;99.90;;;;;;5028518;28;20661;-71
2021/01/24 02:46:39;;;;;;;0.80;0.80;;;1.70;99.90;;;;;;5028671;28;20208;-71
2021/01/24 02:49:07;;;;;;;0.85;0.80;;;1.70;99.90;;;;;;5028878;28;20220;-72
2021/01/24 02:51:35;;;;;;;1.00;0.90;;;1.70;99.90;;;;;;5029146;28;20575;-73
2021/01/24 02:54:03;;;;;;;1.15;0.90;;;1.70;99.90;;;;;;5028920;28;20206;-71
2021/01/24 02:56:29;;;;;;;1.45;0.90;;;1.70;99.90;;;;;;5028921;28;20218;-71
2021/01/24 02:58:56;;;;;;;1.15;1.05;;;1.70;99.90;;;;;;5028899;28;20210;-72
2021/01/24 03:01:22;;;;;;;1.00;0.90;;;1.70;99.90;;;;;;5028794;28;20209;-71
2021/01/24 03:03:48;;;;;;;1.30;1.20;;;1.60;99.90;;;;;;5028679;28;20570;-72
2021/01/24 03:06:16;;;;;;;1.50;1.40;;;1.60;99.90;;;;;;5028903;28;20232;-72
2021/01/24 03:08:43;;;;;;;1.73;1.50;;;1.60;99.90;;;;;;5028615;28;20669;-72
2021/01/24 03:11:12;;;;;;;1.50;1.40;;;1.50;99.90;;;;;;5028877;28;20582;-72
2021/01/24 03:13:43;;;;;;;2.10;1.83;;;1.50;99.90;;;;;;5028442;28;20661;-71
2021/01/24 03:16:11;;;;;;;1.50;1.40;;;1.50;99.90;;;;;;5028952;28;20218;-71
2021/01/24 03:18:42;;;;;;;2.05;1.75;;;1.50;99.90;;;;;;5028768;28;20202;-71
2021/01/24 03:21:10;;;;;;;3.17;1.80;;;1.50;99.90;;;;;;5028780;28;20217;-73
2021/01/24 03:23:38;;;;;;;1.20;1.10;;;1.50;99.90;;;;;;5036451;28;20209;-73
2021/01/24 03:26:06;;;;;;;1.38;1.23;;;1.50;99.90;;;;;;5037667;28;20233;-72
2021/01/24 03:28:33;;;;;;;1.65;1.55;;;1.40;99.90;;;;;;5035061;28;20229;-74
2021/01/24 03:31:01;;;;;;;1.45;1.35;;;1.40;99.90;;;;;;5028429;28;20209;-73
2021/01/24 03:33:28;;;;;;;2.15;1.60;;;1.40;99.90;;;;;;5026588;28;20205;-73
2021/01/24 03:35:54;;;;;;;1.52;1.42;;;1.40;99.90;;;;;;5043451;28;20827;-72
2021/01/24 03:38:20;;;;;;;1.50;1.40;;;1.30;99.90;;;;;;5048384;28;20251;-72
2021/01/24 03:40:47;;;;;;;1.55;1.45;;;1.30;99.90;;;;;;5048608;28;20228;-73
2021/01/24 03:43:13;;;;;;;1.85;1.75;;;1.30;99.90;;;;;;5047980;28;20805;-72
2021/01/24 03:45:40;;;;;;;2.30;1.73;;;1.30;99.90;;;;;;5048494;28;20224;-72
2021/01/24 03:48:06;;;;;;;2.42;2.22;;;1.40;99.90;;;;;;5048249;28;20206;-72
2021/01/24 03:50:32;;;;;;;2.30;1.95;;;1.30;99.90;;;;;;5048272;28;20247;-72
2021/01/24 03:52:59;;;;;;;5.47;2.55;;;1.30;99.90;;;;;;5047704;28;20686;-72
2021/01/24 03:55:25;;;;;;;3.00;2.38;;;1.20;99.90;;;;;;5048298;28;20573;-72
2021/01/24 03:57:52;;;;;;;2.58;2.38;;;1.00;99.90;;;;;;5048284;28;20205;-72
2021/01/24 04:00:19;;;;;;;3.33;2.78;;;1.00;99.90;;;;;;5048308;28;20568;-73
2021/01/24 04:02:45;;;;;;;3.05;2.45;;;0.90;99.90;;;;;;5047713;28;20209;-72
2021/01/24 04:05:12;;;;;;;2.67;2.47;;;0.90;99.90;;;;;;5048684;28;20229;-73
2021/01/24 04:07:38;;;;;;;2.58;2.38;;;0.90;99.90;;;;;;5048240;28;20243;-72
2021/01/24 04:10:05;;;;;;;2.78;2.55;;;0.90;99.90;;;;;;5048112;28;20262;-72
2021/01/24 04:12:31;;;;;;;2.42;2.22;;;1.00;99.90;;;;;;5047833;28;20235;-74
2021/01/24 04:14:58;;;;;;;2.50;2.30;;;0.90;99.90;;;;;;5047856;28;20225;-73
2021/01/24 04:17:25;;;;;;;2.63;2.42;;;0.90;99.90;;;;;;5048315;28;20209;-72
2021/01/24 04:19:51;;;;;;;3.22;2.47;;;0.80;99.90;;;;;;5047932;28;20208;-72
2021/01/24 04:22:17;;;;;;;2.80;2.33;;;0.80;99.90;;;;;;5047351;28;20212;-73
2021/01/24 04:24:43;;;;;;;3.33;2.92;;;0.80;99.90;;;;;;5048359;28;20251;-72
2021/01/24 04:27:09;;;;;;;2.47;2.28;;;0.80;99.90;;;;;;5047838;28;20205;-72
2021/01/24 04:29:36;;;;;;;3.25;2.85;;;0.70;99.90;;;;;;5049698;28;20668;-72
2021/01/24 04:32:03;;;;;;;2.22;2.03;;;0.60;99.90;;;;;;5050748;28;20201;-73
2021/01/24 04:34:29;;;;;;;4.05;2.15;;;0.50;99.90;;;;;;5051556;28;20229;-72
2021/01/24 04:36:56;;;;;;;4.20;2.55;;;0.50;99.90;;;;;;5051427;28;20201;-72
2021/01/24 04:39:22;;;;;;;2.85;2.53;;;0.40;99.90;;;;;;5051167;28;20201;-72
2021/01/24 04:41:50;;;;;;;4.13;2.50;;;0.40;99.90;;;;;;5051113;28;20212;-74
2021/01/24 04:44:16;;;;;;;2.58;2.30;;;0.30;99.90;;;;;;5051036;28;20201;-73
2021/01/24 04:46:45;;;;;;;2.40;2.20;;;0.30;99.90;;;;;;5051378;28;20703;-72
2021/01/24 04:49:12;;;;;;;2.65;2.42;;;0.30;99.90;;;;;;5051335;28;20205;-71
2021/01/24 04:51:39;;;;;;;2.63;2.05;;;0.30;99.90;;;;;;5050484;28;20201;-72
2021/01/24 04:54:06;;;;;;;3.50;2.47;;;0.30;99.90;;;;;;5050974;28;20201;-72
2021/01/24 04:56:36;;;;;;;2.55;2.33;;;0.20;99.90;;;;;;5050935;28;20201;-73
2021/01/24 04:59:03;;;;;;;2.60;2.20;;;0.20;99.90;;;;;;5050978;28;20215;-74
2021/01/24 05:01:31;;;;;;;4.07;2.70;;;0.20;99.90;;;;;;5051272;28;20208;-72
2021/01/24 05:03:59;;;;;;;3.53;2.42;;;0.30;99.90;;;;;;5050364;28;20291;-73
2021/01/24 05:06:26;;;;;;;2.67;2.33;;;0.20;99.90;;;;;;5050907;28;20286;-72
2021/01/24 05:08:52;;;;;;;2.75;2.40;;;0.20;99.90;;;;;;5050722;28;20247;-72
2021/01/24 05:11:21;;;;;;;3.95;2.70;;;0.20;99.90;;;;;;5050775;28;20201;-72
2021/01/24 05:13:47;;;;;;;2.45;2.15;;;0.20;99.90;;;;;;5050330;28;20580;-72
2021/01/24 05:16:13;;;;;;;2.38;2.17;;;0.20;99.90;;;;;;5050267;28;20232;-73
2021/01/24 05:18:41;;;;;;;2.50;2.30;;;0.20;99.90;;;;;;5050929;28;20210;-72
2021/01/24 05:21:09;;;;;;;3.03;2.58;;;0.20;99.90;;;;;;5050042;28;20208;-71
2021/01/24 05:23:37;;;;;;;2.45;2.25;;;0.20;99.90;;;;;;5050310;28;20271;-73
2021/01/24 05:26:08;;;;;;;3.35;2.42;;;0.20;99.90;;;;;;5050100;28;20734;-72
2021/01/24 05:28:45;;;;;;;3.60;2.20;;;0.20;99.90;;;;;;5050458;28;20205;-73
2021/01/24 05:31:11;;;;;;;2.47;2.17;;;0.10;99.90;;;;;;5050227;28;21012;-72
2021/01/24 05:33:42;;;;;;;4.28;3.00;;;0.10;99.90;;;;;;5049677;28;20197;-73
2021/01/24 05:36:09;;;;;;;4.88;2.63;;;0.00;99.90;;;;;;5050012;28;20232;-74
2021/01/24 05:38:35;;;;;;;2.63;2.42;;;-0.10;99.90;;;;;;5050177;28;20197;-74
2021/01/24 05:41:04;;;;;;;4.70;2.80;;;-0.10;99.90;;;;;;5049930;28;20201;-73
2021/01/24 05:43:34;;;;;;;2.92;2.63;;;-0.10;99.90;;;;;;5050117;28;20212;-72
2021/01/24 05:46:01;;;;;;;3.22;2.90;;;-0.10;99.90;;;;;;5049800;28;20264;-71
2021/01/24 05:48:28;;;;;;;2.85;2.53;;;-0.20;99.90;;;;;;5050338;28;20201;-72
2021/01/24 05:50:55;;;;;;;3.22;2.92;;;-0.30;99.90;;;;;;5049961;28;20604;-72
2021/01/24 05:53:23;;;;;;;3.83;2.40;;;-0.30;99.90;;;;;;5049740;28;20228;-71
2021/01/24 05:55:50;;;;;;;2.83;2.63;;;-0.40;99.90;;;;;;5049759;28;20708;-70
2021/01/24 05:58:19;;;;;;;4.97;3.22;;;-0.40;99.90;;;;;;5049742;28;20204;-71
2021/01/24 06:00:47;;;;;;;3.20;2.90;;;-0.40;99.90;;;;;;5049890;28;20197;-72
2021/01/24 06:03:14;;;;;;;4.70;2.85;;;-0.50;99.90;;;;;;5048949;28;20208;-72
2021/01/24 06:05:41;;;;;;;3.05;2.75;;;-0.50;99.90;;;;;;5049829;28;20689;-72
2021/01/24 06:08:08;;;;;;;4.63;3.22;;;-0.40;99.90;;;;;;5049452;28;20239;-72
2021/01/24 06:10:35;;;;;;;4.55;3.35;;;-0.50;99.90;;;;;;5049773;28;20215;-72
2021/01/24 06:13:03;;;;;;;4.18;2.75;;;-0.50;99.90;;;;;;5049029;28;20205;-72
2021/01/24 06:15:32;;;;;;;3.25;2.80;;;-0.50;99.90;;;;;;5049617;28;20278;-72
2021/01/24 06:17:59;;;;;;;3.80;3.00;;;-0.50;99.90;;;;;;5049370;28;20684;-72
2021/01/24 06:20:34;;;;;;;3.08;2.80;;;-0.50;99.90;;;;;;5049271;28;20213;-71
2021/01/24 06:23:05;;;;;;;3.22;2.88;;;-0.50;99.90;;;;;;5048874;28;20297;-72
2021/01/24 06:25:34;;;;;;;4.18;3.30;;;-0.50;99.90;;;;;;5049724;28;20257;-72
2021/01/24 06:28:06;;;;;;;4.00;2.97;;;-0.50;99.90;;;;;;5049120;28;20240;-71
2021/01/24 06:30:34;;;;;;;2.97;2.67;;;-0.50;99.90;;;;;;5049747;28;20197;-71
2021/01/24 06:33:13;;;;;;;3.80;3.08;;;-0.50;99.90;;;;;;5042918;28;20689;-73
2021/01/24 06:35:46;;;;;;;3.42;3.13;;;-0.40;99.90;;;;;;5029501;28;20241;-72
2021/01/24 06:38:27;;;;;;;2.95;2.75;;;-0.30;99.90;;;;;;5029232;28;20233;-73
2021/01/24 06:40:54;;;;;;;3.45;3.15;;;-0.30;99.90;;;;;;5029241;28;20293;-73
2021/01/24 06:43:40;;;;;;;3.08;2.78;;;-0.30;99.90;;;;;;5028726;28;20210;-73
2021/01/24 06:46:08;;;;;;;4.25;2.80;;;-0.30;99.90;;;;;;5028746;28;20229;-72
2021/01/24 06:48:42;;;;;;;3.40;2.67;;;-0.30;99.90;;;;;;5029211;28;20202;-72
2021/01/24 06:51:31;;;;;;;2.90;2.60;;;-0.30;99.90;;;;;;5028438;28;20582;-72
2021/01/24 06:53:58;;;;;;;3.95;2.90;;;-0.20;99.90;;;;;;5028534;28;20237;-72
2021/01/24 06:56:26;;;;;;;3.45;2.63;;;-0.20;99.90;;;;;;5028707;28;20224;-71
2021/01/24 06:58:53;;;;;;;4.65;2.65;;;-0.20;99.90;;;;;;5028952;28;20229;-71
2021/01/24 07:01:30;;;;;;;5.10;3.13;;;-0.20;99.90;;;;;;5028667;28;20201;-73
2021/01/24 07:04:40;;;;;;;4.25;2.83;;;-0.10;99.90;;;;;;5028040;28;20205;-72
2021/01/24 07:07:35;;;;;;;4.57;3.25;;;-0.10;99.90;;;;;;5028885;28;20344;-72
2021/01/24 07:10:06;;;;;;;4.35;2.83;;;-0.10;99.90;;;;;;5028498;28;20845;-72
2021/01/24 07:12:39;;;;;;;3.38;2.95;;;-0.10;99.90;;;;;;5028722;28;20604;-73
2021/01/24 07:15:08;;;;;;;4.22;3.17;;;-0.10;99.90;;;;;;5028999;28;20229;-73
2021/01/24 07:17:36;;;;;;;3.13;2.83;;;-0.10;99.90;;;;;;5029012;28;20205;-72
2021/01/24 07:20:05;;;;;;;3.83;2.92;;;-0.10;99.90;;;;;;5028619;28;20696;-73
2021/01/24 07:22:31;;;;;;;3.60;3.03;;;-0.10;99.90;;;;;;5027933;28;20700;-72
2021/01/24 07:24:58;;;;;;;3.45;3.03;;;-0.20;99.90;;;;;;5028420;28;20703;-72
2021/01/24 07:27:27;;;;;;;2.90;2.60;;;-0.20;99.90;;;;;;5028489;28;20202;-71
2021/01/24 07:29:53;;;;;;;3.53;2.78;;;-0.20;99.90;;;;;;5028501;28;20677;-73
2021/01/24 07:32:21;;;;;;;3.28;2.30;;;-0.20;99.90;;;;;;5027737;28;20272;-73
2021/01/24 07:34:50;;;;;;;3.83;2.95;;;-0.10;99.90;;;;;;5028206;28;20233;-73
2021/01/24 07:37:16;;;;;;;4.80;2.75;;;-0.10;99.90;;;;;;5028441;28;20209;-73
2021/01/24 07:39:44;;;;;;;2.75;2.50;;;-0.10;99.90;;;;;;5028326;28;20231;-72
2021/01/24 07:42:11;;;;;;;3.50;3.03;;;-0.10;99.90;;;;;;5027951;28;20206;-73
2021/01/24 07:44:38;;;;;;;2.97;2.67;;;0.00;99.90;;;;;;5029045;28;20225;-71
2021/01/24 07:47:05;;;;;;;3.10;2.80;;;-0.10;99.90;;;;;;5029090;28;20259;-72
2021/01/24 07:49:31;;;;;;;3.25;2.85;;;-0.10;99.90;;;;;;5029473;28;20583;-72
2021/01/24 07:51:59;;;;;;;3.15;2.60;;;0.00;99.90;;;;;;5030184;28;20206;-72
2021/01/24 07:54:25;;;;;;;3.67;2.85;;;0.00;99.90;;;;;;5035928;28;20202;-72
2021/01/24 07:56:51;;;;;;;2.80;2.38;;;0.10;99.90;;;;;;5036257;28;20210;-72
2021/01/24 07:59:18;;;;;;;2.92;2.47;;;0.10;99.90;;;;;;5031351;28;20674;-72
2021/01/24 08:01:45;;;;;;;2.30;2.05;;;0.20;99.90;;;;;;5028609;28;20213;-72
2021/01/24 08:04:11;;;;;;;3.05;2.22;;;0.60;99.90;;;;;;5030990;28;20372;-72
2021/01/24 08:06:39;;;;;;;5.75;2.67;;;1.20;99.90;;;;;;5032308;28;20271;-72
2021/01/24 08:09:08;;;;;;;2.22;1.95;;;1.60;99.90;;;;;;5032209;28;20206;-72
2021/01/24 08:11:34;;;;;;;4.35;3.53;;;1.70;99.90;;;;;;5031747;28;20212;-72
2021/01/24 08:14:01;;;;;;;2.88;2.50;;;2.00;99.90;;;;;;5032054;28;20213;-73
2021/01/24 08:16:33;;;;;;;2.65;2.45;;;2.10;99.90;;;;;;5031863;28;20267;-73
2021/01/24 08:19:01;;;;;;;2.50;2.30;;;1.80;99.90;;;;;;5031964;28;20577;-72
2021/01/24 08:21:28;;;;;;;3.30;2.35;;;1.70;99.90;;;;;;5031838;28;20547;-72
2021/01/24 08:23:55;;;;;;;3.22;2.20;;;1.90;99.90;;;;;;5031264;28;20324;-72
2021/01/24 08:26:23;;;;;;;4.18;2.65;;;2.60;99.90;;;;;;5031640;28;20299;-74
2021/01/24 08:28:50;;;;;;;2.45;2.15;;;2.80;99.90;;;;;;5031698;28;20206;-73
2021/01/24 08:31:18;;;;;;;3.00;2.33;;;3.30;99.90;;;;;;5032320;28;20209;-71
2021/01/24 08:33:45;;;;;;;2.55;2.35;;;4.00;99.90;;;;;;5031342;28;20198;-71
2021/01/24 08:36:17;;;;;;;2.95;2.10;;;4.50;99.90;;;;;;5066476;23;20230;-91
2021/01/24 08:38:44;;;;;;;2.92;2.00;;;4.60;99.90;;;;;;5075956;28;20200;-90
2021/01/24 08:41:11;;;;;;;3.75;2.60;;;4.50;99.90;;;;;;5076055;28;20197;-90
2021/01/24 08:43:39;;;;;;;6.03;2.55;;;4.30;99.90;;;;;;5085732;28;20214;-91
2021/01/24 08:46:22;;;;;;;3.45;2.60;;;4.20;99.90;;;;;;5096621;28;20520;-89
2021/01/24 08:48:59;;;;;;;2.95;2.70;;;4.50;99.90;;;;;;5099078;28;20191;-89
2021/01/24 08:51:25;;;;;;;3.38;2.33;;;4.80;99.90;;;;;;5099324;28;20181;-89
2021/01/24 08:53:52;;;;;;;2.90;2.42;;;5.10;99.90;;;;;;5098949;28;20184;-89
2021/01/24 08:56:21;;;;;;;2.50;2.22;;;5.60;99.90;;;;;;5099504;28;20259;-90
2021/01/24 08:58:48;;;;;;;4.38;2.40;;;6.70;99.90;;;;;;5099283;28;20188;-88
2021/01/24 09:01:15;;;;;;;2.40;2.20;;;7.60;99.90;;;;;;5099663;28;20181;-89
2021/01/24 09:03:41;;;;;;;3.25;2.13;;;7.30;99.90;;;;;;5098977;28;20223;-88
2021/01/24 09:06:14;;;;;;;3.33;1.95;;;6.40;99.90;;;;;;5098768;28;20220;-88
2021/01/24 09:08:48;;;;;;;3.28;2.05;;;5.00;99.90;;;;;;5099554;28;20177;-88
2021/01/24 09:11:15;;;;;;;2.90;2.60;;;3.70;99.90;;;;;;5099311;28;20180;-91
2021/01/24 09:13:41;;;;;;;2.90;2.50;;;3.00;99.90;;;;;;5099414;28;20185;-87
2021/01/24 09:16:09;;;;;;;2.95;2.30;;;2.40;99.90;;;;;;5098864;28;20207;-88
2021/01/24 09:18:56;;;;;;;2.40;2.20;;;2.40;99.90;;;;;;5098670;28;20192;-88
2021/01/24 09:21:22;;;;;;;4.32;2.55;;;2.30;99.90;;;;;;5098222;28;20181;-88
2021/01/24 09:23:48;;;;;;;3.78;2.70;;;2.20;99.90;;;;;;5098065;28;20181;-88
2021/01/24 09:26:14;;;;;;;3.70;2.28;;;2.10;99.90;;;;;;5099559;28;20219;-93
2021/01/24 09:28:40;;;;;;;2.60;2.40;;;2.00;99.90;;;;;;5117819;28;20180;-90
2021/01/24 09:31:07;;;;;;;5.50;2.85;;;1.90;99.90;;;;;;5117363;28;20180;-91
2021/01/24 09:33:34;;;;;;;2.65;2.45;;;1.80;99.90;;;;;;5113841;28;20184;-90
2021/01/24 09:36:00;;;;;;;2.83;2.60;;;1.80;99.90;;;;;;5117700;28;20245;-91
2021/01/24 09:38:26;;;;;;;2.88;2.50;;;1.80;99.90;;;;;;5117857;28;20191;-91
2021/01/24 09:40:53;;;;;;;2.97;2.22;;;1.70;99.90;;;;;;5117148;28;20276;-91
2021/01/24 09:43:19;;;;;;;2.65;2.45;;;1.80;99.90;;;;;;5117314;28;20243;-91
2021/01/24 09:45:45;;;;;;;9.63;3.00;;;1.70;99.90;;;;;;5116975;28;20270;-91
2021/01/24 09:48:12;;;;;;;4.72;2.55;;;1.80;99.90;;;;;;5117264;28;20188;-93
2021/01/24 09:50:39;;;;;;;3.10;2.80;;;1.80;99.90;;;;;;5117505;28;20183;-94
2021/01/24 09:53:05;;;;;;;4.30;2.47;;;1.90;99.90;;;;;;5117465;28;20395;-92
2021/01/24 09:55:32;;;;;;;2.40;2.20;;;2.00;99.90;;;;;;5117358;28;20183;-94
2021/01/24 09:57:58;;;;;;;3.67;2.38;;;2.30;99.90;;;;;;5117377;28;20187;-93
2021/01/24 10:00:25;;;;;;;3.40;2.08;;;2.70;99.90;;;;;;5117067;28;20220;-94
2021/01/24 10:02:51;;;;;;;2.55;2.33;;;2.90;99.90;;;;;;5116841;28;20184;-93
2021/01/24 10:05:17;;;;;;;4.30;3.45;;;3.00;99.90;;;;;;5116971;28;20212;-92
2021/01/24 10:07:44;;;;;;;2.78;2.40;;;2.80;99.90;;;;;;5109353;28;20277;-91
2021/01/24 10:10:12;;;;;;;2.63;2.42;;;2.80;99.90;;;;;;5119397;28;20180;-92
2021/01/24 10:12:38;;;;;;;3.63;2.55;;;2.80;99.90;;;;;;5119165;28;20251;-93
2021/01/24 10:15:06;;;;;;;2.50;2.30;;;2.80;99.90;;;;;;5119285;28;20246;-92
2021/01/24 10:17:32;;;;;;;2.97;2.40;;;2.70;99.90;;;;;;5119314;28;20212;-91
2021/01/24 10:19:59;;;;;;;2.30;2.10;;;2.80;99.90;;;;;;5113726;28;20260;-91
2021/01/24 10:22:25;;;;;;;2.63;2.42;;;2.80;99.90;;;;;;5097946;28;20698;-91
2021/01/24 10:24:53;;;;;;;3.35;2.00;;;2.80;99.90;;;;;;5113178;28;20187;-95
2021/01/24 10:27:27;;;;;;;4.03;2.10;;;2.80;99.90;;;;;;5115630;28;20222;-94
2021/01/24 10:29:53;;;;;;;1.88;1.67;;;3.00;99.90;;;;;;5115832;28;20248;-94
2021/01/24 10:32:19;;;;;;;4.28;2.67;;;3.10;99.90;;;;;;5113056;28;20192;-92
2021/01/24 10:34:46;;;;;;;2.67;1.92;;;3.00;99.90;;;;;;5111173;28;20240;-94
2021/01/24 10:37:12;;;;;;;2.35;2.15;;;3.00;99.90;;;;;;5109162;28;20239;-92
2021/01/24 10:39:38;;;;;;;4.63;2.20;;;2.90;99.90;;;;;;5109100;28;20196;-91
2021/01/24 10:42:06;;;;;;;4.75;2.35;;;2.80;99.90;;;;;;5108787;28;20208;-92
2021/01/24 10:44:33;;;;;;;2.50;2.20;;;2.60;99.90;;;;;;5107524;28;20200;-92
2021/01/24 10:46:59;;;;;;;5.40;2.00;;;2.40;99.90;;;;;;5108234;28;20235;-92
2021/01/24 10:49:26;;;;;;;3.10;1.77;;;2.30;99.90;;;;;;5110703;28;20217;-92
2021/01/24 10:51:52;;;;;;;1.92;1.45;;;2.20;99.90;;;;;;5097111;28;20208;-91
2021/01/24 10:54:20;;;;;;;2.22;1.77;;;2.20;99.90;;;;;;5104095;28;20233;-92
2021/01/24 10:56:46;;;;;;;1.90;1.67;;;2.30;99.90;;;;;;5095797;28;20222;-92
2021/01/24 10:59:13;;;;;;;2.00;1.60;;;2.50;99.90;;;;;;5092881;28;20260;-92
2021/01/24 11:01:39;;;;;;;4.50;2.00;;;2.70;99.90;;;;;;5092116;28;20636;-92
2021/01/24 11:04:05;;;;;;;2.80;1.60;;;3.40;99.90;;;;;;5092251;28;20252;-92
2021/01/24 11:06:32;;;;;;;1.80;1.60;;;4.20;99.90;;;;;;5092090;28;20227;-92
2021/01/24 11:08:58;;;;;;;2.40;2.20;;;4.40;99.90;;;;;;5092124;28;20292;-91
2021/01/24 11:11:24;;;;;;;2.33;1.70;;;4.50;99.90;;;;;;5092039;28;20601;-92
2021/01/24 11:13:51;;;;;;;1.95;1.67;;;4.90;99.90;;;;;;5092291;28;20211;-92
2021/01/24 11:16:18;;;;;;;2.25;2.05;;;4.80;99.90;;;;;;5091818;28;20216;-92
2021/01/24 11:18:44;;;;;;;1.95;1.75;;;4.40;99.90;;;;;;5094393;28;20210;-90
2021/01/24 11:21:10;;;;;;;3.72;1.90;;;4.40;99.90;;;;;;5092203;28;20208;-92
2021/01/24 11:23:37;;;;;;;1.85;1.58;;;5.10;99.90;;;;;;5092328;28;20203;-90
2021/01/24 11:26:21;;;;;;;1.30;1.20;;;6.20;99.90;;;;;;5092413;28;20231;-90
2021/01/24 11:28:47;;;;;;;6.38;2.20;;;7.40;98.60;;;;;;5091642;28;20195;-90
2021/01/24 11:31:13;;;;;;;2.00;1.80;;;7.90;98.30;;;;;;5092078;28;20569;-91
2021/01/24 11:33:40;;;;;;;2.55;1.77;;;7.80;97.20;;;;;;5091507;28;20199;-90
2021/01/24 11:36:08;;;;;;;1.92;1.70;;;6.90;97.30;;;;;;5092047;28;20231;-91
2021/01/24 11:38:43;;;;;;;2.60;1.90;;;5.90;98.30;;;;;;5095860;28;20257;-91
2021/01/24 11:41:10;;;;;;;2.10;1.70;;;5.10;99.20;;;;;;5100405;28;20207;-92
2021/01/24 11:43:37;;;;;;;2.17;1.95;;;4.50;99.90;;;;;;5096633;28;20211;-91
2021/01/24 11:46:03;;;;;;;1.85;1.73;;;4.00;99.90;;;;;;5097060;28;20235;-90
2021/01/24 11:48:29;;;;;;;2.15;1.90;;;3.70;99.90;;;;;;5095755;28;20196;-90
2021/01/24 11:50:56;;;;;;;2.05;1.75;;;3.60;99.90;;;;;;5096190;28;20234;-92
2021/01/24 11:53:23;;;;;;;2.00;1.80;;;3.30;99.90;;;;;;5097023;28;20192;-92
2021/01/24 11:55:52;;;;;;;3.50;1.75;;;3.10;99.90;;;;;;5095706;28;20192;-91
2021/01/24 11:58:18;;;;;;;2.80;1.85;;;3.00;99.90;;;;;;5096117;28;20207;-91
2021/01/24 12:00:45;;;;;;;2.00;1.45;;;2.90;99.90;;;;;;5095576;28;20210;-92
2021/01/24 12:03:11;;;;;;;1.80;1.50;;;2.80;99.90;;;;;;5099818;28;20211;-91
2021/01/24 12:05:37;;;;;;;2.05;1.70;;;2.80;99.90;;;;;;5096005;28;20219;-91
2021/01/24 12:08:06;;;;;;;2.75;2.17;;;2.90;99.90;;;;;;5096162;28;20210;-91
2021/01/24 12:10:32;;;;;;;2.50;2.05;;;2.90;99.90;;;;;;5097154;28;20215;-90
2021/01/24 12:12:58;;;;;;;2.17;1.88;;;2.90;99.90;;;;;;5097968;28;20255;-91
2021/01/24 12:15:25;;;;;;;1.92;1.80;;;3.00;99.90;;;;;;5096202;28;20199;-91
2021/01/24 12:17:51;;;;;;;2.60;1.52;;;3.10;99.90;;;;;;5095136;28;20235;-91
2021/01/24 12:20:18;;;;;;;2.20;1.70;;;3.10;99.90;;;;;;5097468;28;20259;-91
2021/01/24 12:22:44;;;;;;;2.70;2.03;;;3.00;99.90;;;;;;5098626;28;20210;-92
2021/01/24 12:25:12;;;;;;;6.90;1.90;;;3.10;99.90;;;;;;5095892;28;20223;-91
2021/01/24 12:27:38;;;;;;;2.67;2.03;;;3.00;99.90;;;;;;5094333;28;20234;-89
2021/01/24 12:30:07;;;;;;;2.22;2.00;;;3.00;99.90;;;;;;5082190;28;20207;-90
2021/01/24 12:32:33;;;;;;;3.15;1.90;;;2.90;99.90;;;;;;5091657;28;20642;-91
2021/01/24 12:34:59;;;;;;;2.20;1.77;;;2.80;99.90;;;;;;5078933;28;20193;-91
2021/01/24 12:37:26;;;;;;;4.30;2.60;;;2.80;99.90;;;;;;5087067;28;20747;-91
2021/01/24 12:39:52;;;;;;;5.63;1.80;;;2.80;99.90;;;;;;5087312;28;20206;-92
2021/01/24 12:42:19;;;;;;;4.60;2.10;;;2.90;99.90;;;;;;5083031;28;20662;-92
2021/01/24 12:44:45;;;;;;;2.22;1.90;;;3.00;99.90;;;;;;5080855;28;20197;-90
2021/01/24 12:47:12;;;;;;;5.93;2.22;;;3.10;99.90;;;;;;5095980;28;20232;-91
2021/01/24 12:49:38;;;;;;;1.52;1.40;;;3.30;99.90;;;;;;5096422;28;20733;-88
2021/01/24 12:52:06;;;;;;;3.42;1.95;;;3.30;99.90;;;;;;5096501;28;20212;-90
2021/01/24 12:54:32;;;;;;;2.60;2.08;;;3.40;99.90;;;;;;5096380;28;20207;-91
2021/01/24 12:56:58;;;;;;;1.83;1.58;;;3.70;99.90;;;;;;5096552;28;20226;-91
2021/01/24 12:59:27;;;;;;;2.90;2.28;;;3.70;99.90;;;;;;5097336;28;20203;-91